Time;durP1;ratioP1;P1;durP2;ratioP2;P2;SDS_P1;SDS_P2;PMS_P1;PMS_P2;Temp;Humidity;BMP_temperature;BMP_pressure;BME280_temperature;BME280_humidity;BME280_pressure;Samples;Min_cycle;Max_cycle;Signal;HPM_P1;HPM_P2
2023/07/30 00:02:18;;;;;;;2.78;2.38;;;;;;;20.90;100.00;98931.53;5095881;28;20549;-76
2023/07/30 00:04:45;;;;;;;2.53;2.33;;;;;;;20.89;100.00;98931.84;5089553;28;20193;-75
2023/07/30 00:07:12;;;;;;;2.60;2.40;;;;;;;20.83;100.00;98924.88;5070888;28;20228;-78
2023/07/30 00:09:39;;;;;;;3.13;2.40;;;;;;;20.81;100.00;98924.41;5068174;28;20419;-76
2023/07/30 00:12:07;;;;;;;2.65;2.45;;;;;;;20.82;100.00;98913.19;5072124;28;20613;-76
2023/07/30 00:14:34;;;;;;;2.40;2.20;;;;;;;20.82;100.00;98923.28;5066309;28;20252;-75
2023/07/30 00:17:01;;;;;;;3.30;2.38;;;;;;;20.78;100.00;98917.63;5069050;28;20656;-75
2023/07/30 00:19:28;;;;;;;2.55;2.35;;;;;;;20.72;100.00;98913.38;5069746;28;20208;-75
2023/07/30 00:21:54;;;;;;;2.85;2.65;;;;;;;20.67;100.00;98910.78;5068474;28;20198;-76
2023/07/30 00:24:21;;;;;;;2.55;2.30;;;;;;;20.58;100.00;98918.03;5066162;28;20197;-76
2023/07/30 00:26:48;;;;;;;2.70;2.50;;;;;;;20.49;100.00;98903.50;5068654;28;20201;-75
2023/07/30 00:29:14;;;;;;;2.90;2.70;;;;;;;20.46;100.00;98909.56;5065867;28;20726;-76
2023/07/30 00:31:41;;;;;;;3.38;2.45;;;;;;;20.41;100.00;98912.38;5065465;28;20685;-76
2023/07/30 00:34:08;;;;;;;2.83;2.63;;;;;;;20.43;100.00;98908.28;5065918;28;20185;-75
2023/07/30 00:36:35;;;;;;;3.00;2.40;;;;;;;20.42;100.00;98905.84;5050762;28;20208;-75
2023/07/30 00:39:02;;;;;;;3.00;2.80;;;;;;;20.44;100.00;98903.59;5060197;28;20636;-76
2023/07/30 00:41:30;;;;;;;3.00;2.60;;;;;;;20.42;100.00;98903.13;5064677;28;20205;-75
2023/07/30 00:43:57;;;;;;;2.70;2.50;;;;;;;20.37;100.00;98904.03;5071678;28;20197;-75
2023/07/30 00:46:24;;;;;;;2.63;2.40;;;;;;;20.36;100.00;98901.59;5070667;28;20660;-76
2023/07/30 00:48:51;;;;;;;3.65;2.70;;;;;;;20.36;100.00;98896.16;5071206;28;20200;-75
2023/07/30 00:51:18;;;;;;;2.58;2.38;;;;;;;20.32;100.00;98892.44;5056506;28;20229;-75
2023/07/30 00:53:45;;;;;;;3.85;2.72;;;;;;;20.29;100.00;98898.44;5069344;28;20284;-76
2023/07/30 00:56:12;;;;;;;2.83;2.53;;;;;;;20.28;100.00;98900.34;5071664;28;20246;-75
2023/07/30 00:58:39;;;;;;;2.80;2.60;;;;;;;20.29;100.00;98898.44;5064090;28;20227;-76
2023/07/30 01:01:06;;;;;;;2.95;2.65;;;;;;;20.26;100.00;98891.69;5065862;28;20193;-76
2023/07/30 01:03:33;;;;;;;3.03;2.75;;;;;;;20.27;100.00;98906.91;5071154;28;20213;-76
2023/07/30 01:05:59;;;;;;;2.80;2.60;;;;;;;20.25;100.00;98894.72;5065177;28;20228;-76
2023/07/30 01:08:26;;;;;;;3.00;2.50;;;;;;;20.20;100.00;98904.56;5070759;28;20195;-75
2023/07/30 01:10:54;;;;;;;4.20;2.85;;;;;;;20.18;100.00;98906.78;5057589;28;20287;-76
2023/07/30 01:13:21;;;;;;;3.05;2.67;;;;;;;20.14;100.00;98903.06;5059126;28;20198;-76
2023/07/30 01:15:48;;;;;;;2.83;2.53;;;;;;;20.11;100.00;98903.63;5061591;28;20208;-76
2023/07/30 01:18:15;;;;;;;3.58;2.60;;;;;;;20.13;100.00;98898.72;5059222;28;20189;-76
2023/07/30 01:20:41;;;;;;;3.53;2.60;;;;;;;20.12;100.00;98896.28;5071162;28;20189;-76
2023/07/30 01:23:08;;;;;;;3.38;3.08;;;;;;;20.10;100.00;98899.31;5069080;28;20205;-75
2023/07/30 01:25:36;;;;;;;3.08;2.78;;;;;;;20.05;100.00;98901.31;5069730;28;20652;-75
2023/07/30 01:28:05;;;;;;;3.00;2.72;;;;;;;20.01;100.00;98898.41;5064110;28;20611;-75
2023/07/30 01:30:38;;;;;;;2.97;2.67;;;;;;;19.96;100.00;98897.69;5062395;28;20225;-76
2023/07/30 01:33:06;;;;;;;3.13;2.90;;;;;;;19.93;100.00;98898.25;5070019;28;20192;-76
2023/07/30 01:35:35;;;;;;;3.13;2.67;;;;;;;19.85;100.00;98897.03;5063137;28;20652;-75
2023/07/30 01:38:03;;;;;;;3.58;3.22;;;;;;;19.72;100.00;98898.63;5053233;28;20716;-75
2023/07/30 01:40:30;;;;;;;2.97;2.67;;;;;;;19.71;100.00;98901.63;5070094;28;20763;-77
2023/07/30 01:42:57;;;;;;;2.97;2.78;;;;;;;19.65;100.00;98906.31;5055254;28;20267;-77
2023/07/30 01:45:23;;;;;;;3.42;3.05;;;;;;;19.62;100.00;98903.41;5066455;28;20189;-76
2023/07/30 01:47:50;;;;;;;3.58;2.75;;;;;;;19.61;100.00;98899.88;5048736;28;20247;-78
2023/07/30 01:50:17;;;;;;;2.97;2.75;;;;;;;19.62;100.00;98895.25;5062169;28;20223;-75
2023/07/30 01:52:43;;;;;;;2.95;2.75;;;;;;;19.64;100.00;98901.19;5059332;28;20247;-76
2023/07/30 01:55:10;;;;;;;3.20;2.90;;;;;;;19.62;100.00;98904.22;5057167;28;20217;-76
2023/07/30 01:57:37;;;;;;;3.97;3.05;;;;;;;19.60;100.00;98902.88;5068688;28;20193;-76
2023/07/30 02:00:04;;;;;;;3.58;2.70;;;;;;;19.54;100.00;98902.16;5053956;28;20208;-75
2023/07/30 02:02:31;;;;;;;3.03;2.75;;;;;;;19.52;100.00;98907.06;5063581;28;20189;-75
2023/07/30 02:04:58;;;;;;;3.58;3.05;;;;;;;19.49;100.00;98907.69;5066178;28;20197;-75
2023/07/30 02:07:24;;;;;;;2.78;2.58;;;;;;;19.52;100.00;98908.97;5067037;28;20236;-75
2023/07/30 02:09:51;;;;;;;2.80;2.60;;;;;;;19.54;100.00;98912.22;5067403;28;20223;-75
2023/07/30 02:12:18;;;;;;;2.80;2.60;;;;;;;19.55;100.00;98920.06;5067402;28;20197;-75
2023/07/30 02:14:44;;;;;;;3.03;2.83;;;;;;;19.57;100.00;98920.59;5058440;28;20216;-75
2023/07/30 02:17:11;;;;;;;4.68;2.75;;;;;;;19.60;100.00;98916.47;5069200;28;20190;-76
2023/07/30 02:19:38;;;;;;;3.00;2.70;;;;;;;19.57;100.00;98917.06;5071150;28;20186;-75
2023/07/30 02:22:04;;;;;;;3.03;2.78;;;;;;;19.57;100.00;98908.91;5068192;28;20603;-76
2023/07/30 02:24:32;;;;;;;2.85;2.65;;;;;;;19.59;100.00;98902.09;5068961;28;20189;-75
2023/07/30 02:26:59;;;;;;;3.53;3.30;;;;;;;19.58;100.00;98896.94;5068102;28;20190;-75
2023/07/30 02:29:26;;;;;;;3.70;3.40;;;;;;;19.59;100.00;98896.66;5069784;28;20189;-75
2023/07/30 02:31:52;;;;;;;3.35;3.05;;;;;;;19.55;100.00;98895.59;5051314;28;20220;-75
2023/07/30 02:34:19;;;;;;;3.72;3.42;;;;;;;19.53;100.00;98892.41;5057976;28;20193;-76
2023/07/30 02:36:48;;;;;;;3.72;3.42;;;;;;;19.50;100.00;98894.91;5073908;28;20196;-75
2023/07/30 02:39:15;;;;;;;3.80;3.50;;;;;;;19.51;100.00;98899.22;5067656;28;20660;-75
2023/07/30 02:41:42;;;;;;;4.03;3.67;;;;;;;19.55;100.00;98901.03;5065370;28;20213;-75
2023/07/30 02:44:08;;;;;;;3.97;3.67;;;;;;;19.51;100.00;98901.94;5070800;28;20238;-75
2023/07/30 02:46:35;;;;;;;4.13;3.83;;;;;;;19.46;100.00;98905.53;5073473;28;20197;-76
2023/07/30 02:49:02;;;;;;;3.80;3.50;;;;;;;19.47;100.00;98906.34;5072094;28;20251;-77
2023/07/30 02:51:28;;;;;;;4.20;3.90;;;;;;;19.44;100.00;98907.75;5066301;28;20217;-76
2023/07/30 02:54:01;;;;;;;4.28;3.90;;;;;;;19.43;100.00;98908.00;5067635;28;20667;-75
2023/07/30 02:56:28;;;;;;;4.15;3.75;;;;;;;19.43;100.00;98905.28;5073335;28;20205;-75
2023/07/30 02:58:54;;;;;;;4.25;3.85;;;;;;;19.41;100.00;98905.56;5070591;28;20490;-75
2023/07/30 03:01:22;;;;;;;4.72;4.32;;;;;;;19.39;100.00;98896.13;5067697;28;20209;-76
2023/07/30 03:03:49;;;;;;;4.10;3.70;;;;;;;19.36;100.00;98898.31;5072244;28;20287;-75
2023/07/30 03:06:16;;;;;;;4.37;4.07;;;;;;;19.34;100.00;98900.53;5071883;28;20240;-75
2023/07/30 03:08:43;;;;;;;4.27;3.93;;;;;;;19.29;100.00;98897.88;5070655;28;20279;-76
2023/07/30 03:11:10;;;;;;;4.70;4.30;;;;;;;19.28;100.00;98909.84;5070088;28;20219;-76
2023/07/30 03:13:37;;;;;;;4.33;3.93;;;;;;;19.28;100.00;98904.41;5073039;28;20250;-76
2023/07/30 03:16:04;;;;;;;4.40;4.10;;;;;;;19.26;100.00;98897.69;5072964;28;20196;-75
2023/07/30 03:18:31;;;;;;;4.70;4.40;;;;;;;19.24;100.00;98908.00;5072929;28;20438;-75
2023/07/30 03:21:00;;;;;;;4.30;4.00;;;;;;;19.22;100.00;98902.09;5072860;28;20219;-76
2023/07/30 03:23:27;;;;;;;4.50;4.20;;;;;;;19.17;100.00;98904.88;5057426;28;20189;-78
2023/07/30 03:25:54;;;;;;;5.03;4.63;;;;;;;19.13;100.00;98901.13;5072815;28;20198;-75
2023/07/30 03:28:20;;;;;;;4.72;4.40;;;;;;;19.09;100.00;98895.44;5072432;28;20214;-75
2023/07/30 03:30:47;;;;;;;5.80;5.10;;;;;;;19.05;100.00;98896.31;5072681;28;20221;-75
2023/07/30 03:33:14;;;;;;;4.93;4.53;;;;;;;19.00;100.00;98897.19;5072388;28;20287;-76
2023/07/30 03:35:41;;;;;;;5.25;4.80;;;;;;;18.92;100.00;98895.97;5068109;28;20202;-76
2023/07/30 03:38:07;;;;;;;4.75;4.35;;;;;;;18.97;100.00;98913.28;5068666;28;20201;-76
2023/07/30 03:40:34;;;;;;;5.45;4.85;;;;;;;18.98;100.00;98912.19;5065939;28;20724;-74
2023/07/30 03:43:01;;;;;;;5.17;4.60;;;;;;;18.98;100.00;98921.13;5049937;28;20621;-75
2023/07/30 03:45:28;;;;;;;5.10;4.60;;;;;;;19.01;100.00;98917.81;5072417;28;20185;-76
2023/07/30 03:47:55;;;;;;;4.80;4.40;;;;;;;19.02;100.00;98926.78;5069053;28;20740;-75
2023/07/30 03:50:22;;;;;;;5.68;4.78;;;;;;;19.05;100.00;98926.19;5065849;28;20645;-75
2023/07/30 03:52:48;;;;;;;4.93;4.40;;;;;;;19.09;100.00;98919.88;5062719;28;20617;-77
2023/07/30 03:55:15;;;;;;;4.67;4.23;;;;;;;19.10;100.00;98912.53;5066282;28;20231;-76
2023/07/30 03:57:42;;;;;;;4.53;4.20;;;;;;;19.12;100.00;98913.06;5066135;28;20570;-75
2023/07/30 04:00:09;;;;;;;5.20;4.63;;;;;;;19.17;100.00;98913.81;5068613;28;20286;-75
2023/07/30 04:02:41;;;;;;;5.10;4.70;;;;;;;19.17;100.00;98915.72;5064911;28;20202;-75
2023/07/30 04:05:08;;;;;;;4.82;4.43;;;;;;;19.16;100.00;98912.19;5065768;28;20197;-76
2023/07/30 04:07:34;;;;;;;4.30;4.00;;;;;;;19.21;100.00;98922.19;5079160;28;20247;-75
2023/07/30 04:10:03;;;;;;;4.90;4.43;;;;;;;19.23;100.00;98919.97;5088827;28;20680;-76
2023/07/30 04:12:30;;;;;;;4.30;4.00;;;;;;;19.24;100.00;98925.13;5083166;28;20532;-76
2023/07/30 04:14:57;;;;;;;4.50;4.13;;;;;;;19.25;100.00;98920.50;5086189;28;20595;-76
2023/07/30 04:17:24;;;;;;;4.17;3.77;;;;;;;19.27;100.00;98910.94;5086858;28;20195;-75
2023/07/30 04:19:51;;;;;;;4.45;4.05;;;;;;;19.31;100.00;98922.03;5085977;28;20192;-75
2023/07/30 04:22:18;;;;;;;4.03;3.73;;;;;;;19.33;100.00;98915.19;5092104;28;20218;-75
2023/07/30 04:24:45;;;;;;;4.17;3.67;;;;;;;19.34;100.00;98922.25;5090740;28;20196;-75
2023/07/30 04:27:12;;;;;;;5.00;4.60;;;;;;;19.38;100.00;98919.75;5090623;28;20197;-76
2023/07/30 04:29:39;;;;;;;4.00;3.70;;;;;;;19.42;100.00;98928.94;5091755;28;20188;-77
2023/07/30 04:32:06;;;;;;;3.90;3.60;;;;;;;19.46;100.00;98918.31;5091869;28;20221;-75
2023/07/30 04:34:33;;;;;;;4.00;3.70;;;;;;;19.50;100.00;98927.50;5089708;28;20658;-76
2023/07/30 04:37:01;;;;;;;4.97;3.60;;;;;;;19.57;100.00;98922.50;5091573;28;20208;-75
2023/07/30 04:39:30;;;;;;;3.90;3.60;;;;;;;19.59;100.00;98917.59;5090526;28;20295;-75
2023/07/30 04:41:56;;;;;;;4.10;3.50;;;;;;;19.65;100.00;98919.91;5073534;28;20584;-77
2023/07/30 04:44:23;;;;;;;3.80;3.50;;;;;;;19.70;100.00;98919.03;5091860;28;20591;-75
2023/07/30 04:46:50;;;;;;;3.90;3.60;;;;;;;19.76;100.00;98915.94;5091479;28;20726;-75
2023/07/30 04:49:16;;;;;;;3.90;3.50;;;;;;;19.85;100.00;98926.13;5090487;28;20829;-76
2023/07/30 04:51:43;;;;;;;3.65;3.42;;;;;;;19.91;100.00;98920.31;5090182;28;20732;-76
2023/07/30 04:54:10;;;;;;;3.60;3.30;;;;;;;19.98;100.00;98926.16;5090430;28;20227;-75
2023/07/30 04:56:37;;;;;;;4.75;3.72;;;;;;;20.02;100.00;98929.91;5090471;28;20195;-75
2023/07/30 04:59:04;;;;;;;4.18;3.42;;;;;;;20.10;100.00;98936.59;5090257;28;20196;-75
2023/07/30 05:01:31;;;;;;;4.00;3.60;;;;;;;20.16;100.00;98930.75;5090391;28;20210;-76
2023/07/30 05:03:57;;;;;;;4.50;3.40;;;;;;;20.23;100.00;98933.09;5091665;28;20689;-76
2023/07/30 05:06:24;;;;;;;3.20;3.00;;;;;;;20.27;100.00;98933.28;5100189;28;20732;-75
2023/07/30 05:08:51;;;;;;;3.78;3.17;;;;;;;20.30;100.00;98930.81;5107939;28;20682;-76
2023/07/30 05:11:18;;;;;;;4.55;3.58;;;;;;;20.32;100.00;98928.59;5097367;28;20203;-75
2023/07/30 05:13:44;;;;;;;3.65;3.35;;;;;;;20.37;100.00;98931.22;5110218;28;20192;-75
2023/07/30 05:16:11;;;;;;;3.72;3.35;;;;;;;20.38;100.00;98926.59;5112026;28;20203;-76
2023/07/30 05:18:38;;;;;;;3.70;3.40;;;;;;;20.32;100.00;98935.94;5111568;28;20226;-75
2023/07/30 05:21:05;;;;;;;3.70;3.40;;;;;;;20.35;100.00;98932.63;5108761;28;20208;-75
2023/07/30 05:23:31;;;;;;;3.60;3.30;;;;;;;20.36;100.00;98924.16;5097026;28;20252;-76
2023/07/30 05:25:58;;;;;;;4.07;3.40;;;;;;;20.35;100.00;98928.00;5105667;28;20797;-76
2023/07/30 05:28:25;;;;;;;3.35;3.15;;;;;;;20.37;100.00;98931.22;5106275;28;20602;-76
2023/07/30 05:30:52;;;;;;;3.90;3.60;;;;;;;20.40;100.00;98930.63;5089191;28;20585;-76
2023/07/30 05:33:19;;;;;;;3.85;3.55;;;;;;;20.43;100.00;98926.50;5095517;28;20249;-76
2023/07/30 05:35:47;;;;;;;3.95;3.65;;;;;;;20.42;100.00;98922.16;5103828;28;20677;-75
2023/07/30 05:38:14;;;;;;;4.03;3.53;;;;;;;20.40;100.00;98924.38;5103392;28;20195;-76
2023/07/30 05:40:41;;;;;;;3.70;3.40;;;;;;;20.41;100.00;98923.25;5100737;28;20199;-75
2023/07/30 05:43:08;;;;;;;3.25;3.05;;;;;;;20.42;100.00;98920.25;5107437;28;20192;-76
2023/07/30 05:45:35;;;;;;;3.80;3.50;;;;;;;20.45;100.00;98916.91;5101855;28;20666;-76
2023/07/30 05:48:02;;;;;;;3.60;3.30;;;;;;;20.52;100.00;98908.38;5084215;28;20191;-75
2023/07/30 05:50:28;;;;;;;3.78;3.33;;;;;;;20.61;100.00;98909.28;5111113;28;20215;-76
2023/07/30 05:52:55;;;;;;;3.92;3.50;;;;;;;20.74;100.00;98916.63;5108715;28;20217;-75
2023/07/30 05:55:22;;;;;;;3.58;3.28;;;;;;;20.87;100.00;98907.63;5105458;28;20193;-74
2023/07/30 05:57:48;;;;;;;4.25;3.85;;;;;;;21.04;100.00;98907.81;5110312;28;20260;-75
2023/07/30 06:00:15;;;;;;;3.60;3.30;;;;;;;21.19;100.00;98911.34;5102821;28;20209;-75
2023/07/30 06:02:42;;;;;;;4.00;3.20;;;;;;;21.39;100.00;98908.97;5094459;28;20681;-75
2023/07/30 06:05:08;;;;;;;3.65;3.30;;;;;;;21.53;100.00;98908.94;5109918;28;20191;-77
2023/07/30 06:07:35;;;;;;;5.15;3.45;;;;;;;21.72;100.00;98916.94;5073491;28;20286;-76
2023/07/30 06:10:02;;;;;;;4.00;3.58;;;;;;;21.84;100.00;98922.63;5070023;28;20192;-76
2023/07/30 06:12:29;;;;;;;3.58;3.28;;;;;;;21.97;100.00;98927.25;5072782;28;20229;-75
2023/07/30 06:14:55;;;;;;;3.60;3.30;;;;;;;22.10;100.00;98929.09;5069676;28;20203;-76
2023/07/30 06:17:22;;;;;;;3.42;3.17;;;;;;;22.22;100.00;98929.31;5071220;28;20244;-75
2023/07/30 06:19:49;;;;;;;3.88;3.58;;;;;;;22.34;100.00;98932.28;5071838;28;20250;-75
2023/07/30 06:22:15;;;;;;;3.58;3.28;;;;;;;22.45;100.00;98940.19;5073129;28;20196;-75
2023/07/30 06:24:42;;;;;;;3.90;3.60;;;;;;;22.45;100.00;98943.72;5071102;28;20194;-76
2023/07/30 06:27:09;;;;;;;3.58;3.28;;;;;;;22.51;100.00;98947.13;5070114;28;20732;-76
2023/07/30 06:29:36;;;;;;;3.47;3.17;;;;;;;22.54;100.00;98941.03;5070830;28;20306;-75
2023/07/30 06:32:03;;;;;;;3.70;3.40;;;;;;;22.66;100.00;98942.06;5070207;28;20213;-75
2023/07/30 06:34:30;;;;;;;3.33;3.10;;;;;;;22.81;100.00;98940.88;5072752;28;20246;-75
2023/07/30 06:36:56;;;;;;;4.00;3.40;;;;;;;23.01;100.00;98937.53;5070500;28;20603;-76
2023/07/30 06:39:23;;;;;;;3.72;3.42;;;;;;;23.12;100.00;98938.88;5072720;28;20245;-75
2023/07/30 06:41:50;;;;;;;3.53;3.22;;;;;;;23.30;100.00;98936.97;5072461;28;20196;-76
2023/07/30 06:44:17;;;;;;;3.47;3.17;;;;;;;23.50;100.00;98936.38;5029816;28;20208;-75
2023/07/30 06:46:44;;;;;;;3.67;3.20;;;;;;;23.66;100.00;98934.75;5067365;28;20266;-75
2023/07/30 06:49:11;;;;;;;3.80;3.50;;;;;;;23.91;100.00;98938.63;5054704;28;20206;-75
2023/07/30 06:51:37;;;;;;;3.78;3.22;;;;;;;24.05;100.00;98938.44;5067347;28;20216;-76
2023/07/30 06:54:05;;;;;;;3.17;2.97;;;;;;;24.17;100.00;98946.03;5065298;28;20553;-75
2023/07/30 06:56:31;;;;;;;3.53;3.22;;;;;;;24.26;100.00;98955.00;5067105;28;20534;-75
2023/07/30 06:58:58;;;;;;;3.20;3.00;;;;;;;24.16;100.00;98955.31;5066611;28;20632;-75
2023/07/30 07:01:25;;;;;;;3.38;3.17;;;;;;;24.00;100.00;98953.09;5061635;28;20196;-75
2023/07/30 07:03:51;;;;;;;3.00;2.80;;;;;;;23.61;100.00;98958.72;5058191;28;20276;-75
2023/07/30 07:06:18;;;;;;;3.42;3.13;;;;;;;23.36;100.00;98954.81;5073363;28;20582;-76
2023/07/30 07:08:45;;;;;;;3.25;3.00;;;;;;;23.17;100.00;98963.31;5071471;28;20597;-75
2023/07/30 07:11:12;;;;;;;3.60;2.78;;;;;;;23.04;100.00;98960.72;5070536;28;20244;-75
2023/07/30 07:13:39;;;;;;;2.90;2.70;;;;;;;22.90;100.00;98960.81;5064414;28;20652;-75
2023/07/30 07:16:06;;;;;;;3.58;3.28;;;;;;;22.67;100.00;98964.72;5054752;28;20578;-76
2023/07/30 07:18:32;;;;;;;4.05;3.20;;;;;;;22.56;100.00;98964.19;5072569;28;20193;-76
2023/07/30 07:20:59;;;;;;;3.72;3.30;;;;;;;22.52;100.00;98970.59;5066402;28;20193;-76
2023/07/30 07:23:26;;;;;;;4.43;3.00;;;;;;;22.43;100.00;98967.81;5067096;28;20557;-75
2023/07/30 07:25:52;;;;;;;3.00;2.80;;;;;;;22.43;100.00;98973.28;5072091;28;20720;-75
2023/07/30 07:28:19;;;;;;;3.72;3.38;;;;;;;22.46;100.00;98974.56;5072206;28;20306;-76
2023/07/30 07:30:46;;;;;;;3.40;3.10;;;;;;;22.36;100.00;98962.78;5071018;28;20220;-76
2023/07/30 07:33:13;;;;;;;2.70;2.42;;;;;;;22.40;100.00;98976.59;5070079;28;20218;-77
2023/07/30 07:35:40;;;;;;;3.10;2.80;;;;;;;22.39;100.00;98975.84;5071254;28;20203;-75
2023/07/30 07:38:07;;;;;;;2.55;2.35;;;;;;;22.38;100.00;98974.22;5071477;28;20199;-75
2023/07/30 07:40:40;;;;;;;2.30;2.10;;;;;;;22.37;100.00;98977.25;5071439;28;20200;-75
2023/07/30 07:43:08;;;;;;;2.60;2.33;;;;;;;22.34;100.00;98972.44;5066486;28;20197;-75
2023/07/30 07:45:34;;;;;;;2.47;2.13;;;;;;;22.32;100.00;98980.91;5070474;28;20757;-77
2023/07/30 07:48:01;;;;;;;3.00;2.05;;;;;;;22.40;100.00;98977.41;5067954;28;20189;-76
2023/07/30 07:50:28;;;;;;;2.55;1.88;;;;;;;22.38;100.00;98974.22;5070849;28;20295;-77
2023/07/30 07:52:55;;;;;;;2.60;2.40;;;;;;;22.38;100.00;98982.41;5066712;28;20304;-75
2023/07/30 07:55:21;;;;;;;2.08;1.88;;;;;;;22.43;100.00;98981.47;5070527;28;20270;-75
2023/07/30 07:57:48;;;;;;;2.72;2.53;;;;;;;22.53;100.00;98983.13;5071113;28;20271;-76
2023/07/30 08:00:15;;;;;;;3.00;2.53;;;;;;;22.59;100.00;98985.38;5061056;28;20193;-74
2023/07/30 08:02:41;;;;;;;2.60;2.40;;;;;;;22.68;100.00;98991.69;5061334;28;20213;-75
2023/07/30 08:05:08;;;;;;;2.70;2.50;;;;;;;22.72;100.00;98992.69;5058946;28;20189;-75
2023/07/30 08:07:35;;;;;;;3.00;2.80;;;;;;;22.81;100.00;98992.75;5063137;28;20263;-76
2023/07/30 08:10:02;;;;;;;4.20;3.85;;;;;;;22.91;100.00;98997.91;5064548;28;20237;-78
2023/07/30 08:12:32;;;;;;;6.40;5.90;;;;;;;22.95;100.00;98998.13;5071067;28;20768;-75
2023/07/30 08:14:59;;;;;;;7.20;6.50;;;;;;;23.00;100.00;98997.97;5067665;28;20189;-75
2023/07/30 08:17:25;;;;;;;4.65;4.25;;;;;;;23.10;100.00;98992.19;5070895;28;20210;-75
2023/07/30 08:19:52;;;;;;;3.90;3.60;;;;;;;23.36;100.00;98987.63;5066856;28;20448;-76
2023/07/30 08:22:18;;;;;;;3.60;3.30;;;;;;;23.66;100.00;98994.09;5070984;28;20573;-76
2023/07/30 08:24:45;;;;;;;4.55;3.88;;;;;;;23.93;100.00;99012.16;5066494;28;20196;-75
2023/07/30 08:27:12;;;;;;;4.80;4.40;;;;;;;24.14;100.00;98999.41;5069471;28;20193;-76
2023/07/30 08:29:38;;;;;;;4.30;3.97;;;;;;;24.30;100.00;99005.22;5069993;28;20192;-78
2023/07/30 08:32:05;;;;;;;3.42;3.15;;;;;;;24.59;100.00;99004.53;5070460;28;20228;-77
2023/07/30 08:34:32;;;;;;;3.30;3.10;;;;;;;24.75;100.00;98995.44;5065454;28;20690;-77
2023/07/30 08:36:59;;;;;;;3.17;2.92;;;;;;;25.11;100.00;99003.22;5064245;28;20200;-76
2023/07/30 08:39:26;;;;;;;3.80;3.03;;;;;;;25.51;100.00;99002.81;5065425;28;20191;-76
2023/07/30 08:41:52;;;;;;;3.38;3.08;;;;;;;26.20;100.00;99005.84;5064192;28;20203;-75
2023/07/30 08:44:20;;;;;;;2.95;2.65;;;;;;;26.39;100.00;99000.69;5053185;28;20215;-76
2023/07/30 08:46:46;;;;;;;2.40;2.20;;;;;;;26.61;100.00;99003.03;5064914;28;20193;-76
2023/07/30 08:49:13;;;;;;;3.15;2.60;;;;;;;26.70;100.00;98998.22;5068658;28;20209;-77
2023/07/30 08:51:41;;;;;;;2.35;2.15;;;;;;;26.79;100.00;98995.38;5066072;28;20684;-78
2023/07/30 08:54:10;;;;;;;3.92;2.47;;;;;;;26.97;100.00;98996.03;5065020;28;20189;-77
2023/07/30 08:56:36;;;;;;;2.47;2.28;;;;;;;26.98;100.00;98989.34;5048834;28;20239;-78
2023/07/30 08:59:03;;;;;;;2.58;2.38;;;;;;;26.80;100.00;98999.72;5058486;28;20186;-78
2023/07/30 09:01:34;;;;;;;2.28;2.08;;;;;;;26.62;100.00;98993.66;5062659;28;20196;-76
2023/07/30 09:04:02;;;;;;;2.13;1.90;;;;;;;26.44;100.00;98988.69;5063832;28;20597;-78
2023/07/30 09:06:29;;;;;;;2.40;2.20;;;;;;;26.49;100.00;98988.47;5080093;28;20590;-78
2023/07/30 09:08:55;;;;;;;2.35;2.00;;;;;;;26.74;100.00;98998.34;5105025;28;20200;-78
2023/07/30 09:11:26;;;;;;;2.20;2.10;;;;;;;26.96;100.00;98997.16;5105002;28;20196;-78
2023/07/30 09:13:54;;;;;;;2.22;2.05;;;;;;;27.11;100.00;98990.94;5096274;28;20202;-78
2023/07/30 09:16:24;;;;;;;2.97;2.70;;;;;;;27.36;100.00;98989.00;5083017;28;20192;-77
2023/07/30 09:18:53;;;;;;;2.30;2.05;;;;;;;28.01;100.00;98999.66;5075675;28;20581;-78
2023/07/30 09:21:29;;;;;;;2.95;2.00;;;;;;;28.58;100.00;98981.16;5104834;28;20199;-77
2023/07/30 09:23:57;;;;;;;2.20;2.10;;;;;;;28.89;100.00;98962.69;5096147;28;20868;-77
2023/07/30 09:26:24;;;;;;;2.00;1.90;;;;;;;28.78;100.00;98958.88;5108123;28;20252;-79
2023/07/30 09:28:50;;;;;;;2.10;2.00;;;;;;;28.67;100.00;98973.50;5091908;28;20189;-78
2023/07/30 09:31:17;;;;;;;2.22;2.05;;;;;;;28.89;100.00;98961.88;5090545;28;20212;-79
2023/07/30 09:33:48;;;;;;;1.80;1.70;;;;;;;28.87;100.00;98964.22;5102996;28;20187;-78
2023/07/30 09:36:15;;;;;;;2.10;2.00;;;;;;;28.58;100.00;98957.16;5110913;28;20191;-80
2023/07/30 09:38:42;;;;;;;2.05;1.95;;;;;;;28.81;100.00;98951.84;5111339;28;20198;-78
2023/07/30 09:41:11;;;;;;;2.60;1.88;;;;;;;29.55;100.00;98944.53;5111147;28;20211;-80
2023/07/30 09:43:39;;;;;;;1.73;1.63;;;;;;;29.52;100.00;98937.78;5108145;28;20189;-80
2023/07/30 09:46:06;;;;;;;1.98;1.88;;;;;;;29.31;100.00;98943.63;5110138;28;20196;-80
2023/07/30 09:48:34;;;;;;;2.15;1.95;;;;;;;29.68;100.00;98937.69;5096884;28;20826;-80
2023/07/30 09:51:03;;;;;;;1.70;1.60;;;;;;;29.56;100.00;98929.56;5077147;28;20196;-80
2023/07/30 09:53:34;;;;;;;2.20;2.10;;;;;;;29.33;100.00;98934.19;5104000;28;20216;-80
2023/07/30 09:56:08;;;;;;;1.98;1.88;;;;;;;29.01;100.00;98937.00;5103529;28;20279;-80
2023/07/30 09:58:37;;;;;;;2.05;1.90;;;;;;;28.93;100.00;98937.19;5111812;28;20274;-80
2023/07/30 10:01:05;;;;;;;2.35;2.17;;;;;;;29.12;100.00;98926.19;5111271;28;20245;-80
2023/07/30 10:03:35;;;;;;;2.42;2.30;;;;;;;29.45;100.00;98932.09;5079115;28;20280;-80
2023/07/30 10:06:05;;;;;;;2.22;2.00;;;;;;;29.92;100.00;98917.31;5083322;28;20258;-80
2023/07/30 10:08:34;;;;;;;2.10;2.00;;;;;;;29.92;100.00;98912.59;5091250;28;20196;-80
2023/07/30 10:11:03;;;;;;;2.05;1.95;;;;;;;30.02;100.00;98917.53;5095976;28;20188;-80
2023/07/30 10:13:30;;;;;;;1.90;1.80;;;;;;;30.57;100.00;98910.66;5092659;28;20270;-80
2023/07/30 10:15:58;;;;;;;2.08;1.98;;;;;;;30.86;98.20;98902.81;5093579;28;20596;-81
2023/07/30 10:18:42;;;;;;;1.95;1.85;;;;;;;31.12;95.01;98904.84;5094420;28;20196;-80
2023/07/30 10:21:11;;;;;;;1.80;1.70;;;;;;;30.88;94.42;98889.44;5090992;28;20196;-80
2023/07/30 10:23:50;;;;;;;2.13;2.03;;;;;;;30.76;95.28;98890.44;5089883;28;20189;-80
2023/07/30 10:26:26;;;;;;;2.20;2.10;;;;;;;30.85;98.06;98896.50;5089637;28;20227;-80
2023/07/30 10:29:19;;;;;;;1.55;1.45;;;;;;;30.51;90.86;98903.06;5090172;28;20196;-81
2023/07/30 10:31:52;;;;;;;1.30;1.30;;;;;;;30.19;87.61;98894.16;5090405;28;20208;-80
2023/07/30 10:34:19;;;;;;;1.10;1.10;;;;;;;30.19;82.41;98883.91;5094568;28;20208;-81
2023/07/30 10:36:48;;;;;;;1.30;1.20;;;;;;;29.82;83.93;98891.06;5087381;28;20200;-80
2023/07/30 10:39:27;;;;;;;0.90;0.90;;;;;;;29.31;84.20;98885.69;5093877;28;20203;-79
2023/07/30 10:41:58;;;;;;;1.40;1.30;;;;;;;29.07;88.67;98907.97;5094210;28;20206;-81
2023/07/30 10:44:31;;;;;;;1.70;1.58;;;;;;;29.03;88.49;98911.78;5093920;28;20195;-80
2023/07/30 10:46:59;;;;;;;3.00;2.00;;;;;;;29.00;95.91;98923.56;5092986;28;20212;-80
2023/07/30 10:49:26;;;;;;;1.50;1.40;;;;;;;29.08;94.05;98937.13;5093628;28;20555;-80
2023/07/30 10:51:55;;;;;;;2.25;2.05;;;;;;;29.63;98.44;98927.75;5093876;28;20181;-80
2023/07/30 10:54:23;;;;;;;2.40;2.20;;;;;;;29.86;99.66;98919.56;5092443;28;20188;-80
2023/07/30 10:56:49;;;;;;;2.83;2.20;;;;;;;29.81;100.00;98906.06;5093127;28;20219;-80
2023/07/30 10:59:17;;;;;;;2.55;2.03;;;;;;;29.57;100.00;98909.09;5085853;28;21005;-79
2023/07/30 11:01:44;;;;;;;2.45;2.25;;;;;;;29.29;100.00;98893.50;5093682;28;20242;-80
2023/07/30 11:04:13;;;;;;;2.05;1.90;;;;;;;29.39;100.00;98891.38;5093750;28;20200;-81
2023/07/30 11:06:48;;;;;;;1.83;1.70;;;;;;;29.39;100.00;98897.69;5096418;28;20220;-80
2023/07/30 11:09:23;;;;;;;1.77;1.50;;;;;;;29.42;95.89;98887.88;5086264;28;20200;-79
2023/07/30 11:11:50;;;;;;;1.90;1.40;;;;;;;29.67;92.27;98881.72;5075804;28;20289;-80
2023/07/30 11:14:21;;;;;;;1.25;1.10;;;;;;;29.75;86.60;98874.38;5105464;28;20195;-81
2023/07/30 11:16:59;;;;;;;0.98;0.98;;;;;;;29.83;81.37;98864.25;5096834;28;20188;-79
2023/07/30 11:19:26;;;;;;;0.82;0.82;;;;;;;29.60;80.71;98870.53;5106276;28;20264;-81
2023/07/30 11:21:56;;;;;;;1.40;1.02;;;;;;;29.29;77.83;98873.41;5109276;28;20188;-80
2023/07/30 11:24:36;;;;;;;1.00;0.90;;;;;;;29.01;75.84;98875.53;5103693;28;20607;-80
2023/07/30 11:27:03;;;;;;;0.93;0.93;;;;;;;29.11;74.96;98870.25;5107995;28;20191;-81
2023/07/30 11:29:30;;;;;;;1.02;0.93;;;;;;;29.11;76.48;98870.25;5079802;28;20207;-79